createdAt,value
2024-01-10T00:00:08.300Z,95426.00
2024-01-10T00:01:08.249Z,95423.00
2024-01-10T00:02:08.365Z,95423.00
2024-01-10T00:03:08.301Z,95424.00
2024-01-10T00:04:08.381Z,95424.00
2024-01-10T00:05:08.453Z,95423.00
2024-01-10T00:06:08.608Z,95423.00
2024-01-10T00:07:08.556Z,95423.00
2024-01-10T00:08:08.654Z,95423.00
2024-01-10T00:09:08.732Z,95421.00
2024-01-10T00:10:08.748Z,95422.00
2024-01-10T00:11:08.795Z,95420.00
2024-01-10T00:12:08.878Z,95421.00
2024-01-10T00:13:08.933Z,95422.00
2024-01-10T00:14:09.020Z,95423.00
2024-01-10T00:15:09.003Z,95417.00
2024-01-10T00:16:09.148Z,95415.00
2024-01-10T00:17:09.153Z,95416.00
2024-01-10T00:18:09.330Z,95419.00
2024-01-10T00:19:09.338Z,95418.00
2024-01-10T00:20:09.597Z,95418.00
2024-01-10T00:21:09.643Z,95421.00
2024-01-10T00:22:09.703Z,95425.00
2024-01-10T00:23:09.909Z,95423.00
2024-01-10T00:24:10.066Z,95420.00
2024-01-10T00:25:10.398Z,95420.00
2024-01-10T00:26:10.449Z,95421.00
2024-01-10T00:27:10.596Z,95420.00
2024-01-10T00:28:10.719Z,95420.00
2024-01-10T00:29:10.844Z,95419.00
2024-01-10T00:30:11.057Z,95419.00
2024-01-10T00:31:11.209Z,95416.00
2024-01-10T00:32:11.413Z,95417.00
2024-01-10T00:33:11.549Z,95421.00
2024-01-10T00:34:11.798Z,95423.00
2024-01-10T00:35:11.868Z,95420.00
2024-01-10T00:36:11.925Z,95419.00
2024-01-10T00:37:11.997Z,95416.00
2024-01-10T00:38:12.153Z,95419.00
2024-01-10T00:39:12.153Z,95415.00
2024-01-10T00:40:12.179Z,95413.00
2024-01-10T00:41:12.334Z,95412.00
2024-01-10T00:42:12.322Z,95416.00
2024-01-10T00:43:12.342Z,95412.00
2024-01-10T00:44:13.070Z,95413.00
2024-01-10T00:45:12.489Z,95411.00
2024-01-10T00:46:12.591Z,95410.00
2024-01-10T00:47:12.675Z,95411.00
2024-01-10T00:48:12.787Z,95411.00
2024-01-10T00:49:12.727Z,95408.00
2024-01-10T00:50:12.817Z,95411.00
2024-01-10T00:51:12.956Z,95408.00
2024-01-10T00:52:13.127Z,95407.00
2024-01-10T00:53:13.386Z,95406.00
2024-01-10T00:54:13.339Z,95405.00
2024-01-10T00:55:13.488Z,95406.00
2024-01-10T00:56:13.732Z,95409.00
2024-01-10T00:57:13.780Z,95411.00
2024-01-10T00:58:13.910Z,95411.00
2024-01-10T00:59:14.218Z,95409.00
2024-01-10T01:00:14.209Z,95410.00
2024-01-10T01:01:14.268Z,95408.00
2024-01-10T01:02:14.419Z,95406.00
2024-01-10T01:03:14.506Z,95404.00
2024-01-10T01:04:14.580Z,95403.00
2024-01-10T01:05:14.902Z,95405.00
2024-01-10T01:06:14.980Z,95406.00
2024-01-10T01:07:15.098Z,95407.00
2024-01-10T01:08:15.251Z,95405.00
2024-01-10T01:09:15.293Z,95407.00
2024-01-10T01:10:15.436Z,95407.00
2024-01-10T01:11:15.624Z,95408.00
2024-01-10T01:12:15.822Z,95407.00
2024-01-10T01:13:15.952Z,95405.00
2024-01-10T01:14:16.081Z,95404.00
2024-01-10T01:15:16.176Z,95406.00
2024-01-10T01:16:16.257Z,95409.00
2024-01-10T01:17:16.420Z,95409.00
2024-01-10T01:18:16.674Z,95410.00
2024-01-10T01:19:16.768Z,95411.00
2024-01-10T01:20:16.916Z,95412.00
2024-01-10T01:21:16.961Z,95410.00
2024-01-10T01:22:17.093Z,95411.00
2024-01-10T01:23:23.471Z,95414.00
2024-01-10T01:24:18.317Z,95416.00
2024-01-10T01:25:17.275Z,95416.00
2024-01-10T01:26:17.380Z,95417.00
2024-01-10T01:27:17.221Z,95420.00
2024-01-10T01:28:17.277Z,95417.00
2024-01-10T01:29:17.367Z,95414.00
2024-01-10T01:30:17.245Z,95415.00
2024-01-10T01:31:17.246Z,95417.00
2024-01-10T01:32:17.483Z,95420.00
2024-01-10T01:33:17.712Z,95421.00
2024-01-10T01:34:17.839Z,95418.00
2024-01-10T01:35:17.935Z,95416.00
2024-01-10T01:36:17.937Z,95417.00
2024-01-10T01:37:18.114Z,95417.00
2024-01-10T01:38:18.332Z,95418.00
2024-01-10T01:39:18.473Z,95421.00
2024-01-10T01:40:18.578Z,95420.00
2024-01-10T01:41:18.825Z,95420.00
2024-01-10T01:42:18.823Z,95421.00
2024-01-10T01:43:18.979Z,95423.00
2024-01-10T01:44:19.241Z,95422.00
2024-01-10T01:45:19.291Z,95420.00
2024-01-10T01:46:19.449Z,95421.00
2024-01-10T01:47:19.727Z,95421.00
2024-01-10T01:48:19.874Z,95422.00
2024-01-10T01:49:19.893Z,95422.00
2024-01-10T01:50:20.037Z,95424.00
2024-01-10T01:51:20.097Z,95424.00
2024-01-10T01:52:20.258Z,95428.00
2024-01-10T01:53:20.759Z,95427.00
2024-01-10T01:54:20.492Z,95428.00
2024-01-10T01:55:20.548Z,95426.00
2024-01-10T01:56:20.698Z,95425.00
2024-01-10T01:57:20.767Z,95423.00
2024-01-10T01:58:20.791Z,95424.00
2024-01-10T01:59:20.914Z,95424.00
2024-01-10T02:00:20.905Z,95425.00
2024-01-10T02:01:21.025Z,95422.00
2024-01-10T02:02:21.297Z,95424.00
2024-01-10T02:03:21.271Z,95429.00
2024-01-10T02:04:21.366Z,95430.00
2024-01-10T02:05:21.341Z,95431.00
2024-01-10T02:06:21.406Z,95430.00
2024-01-10T02:07:21.434Z,95432.00
2024-01-10T02:08:21.504Z,95429.00
2024-01-10T02:09:21.557Z,95428.00
2024-01-10T02:10:21.592Z,95429.00
2024-01-10T02:11:21.730Z,95432.00
2024-01-10T02:12:21.715Z,95431.00
2024-01-10T02:13:21.787Z,95426.00
2024-01-10T02:14:21.910Z,95425.00
2024-01-10T02:15:21.903Z,95428.00
2024-01-10T02:16:21.944Z,95430.00
2024-01-10T02:17:22.058Z,95430.00
2024-01-10T02:18:22.111Z,95432.00
2024-01-10T02:19:22.311Z,95430.00
2024-01-10T02:21:22.553Z,95434.00
2024-01-10T02:22:22.686Z,95434.00
2024-01-10T02:23:22.995Z,95434.00
2024-01-10T02:24:22.947Z,95432.00
2024-01-10T02:25:23.076Z,95436.00
2024-01-10T02:26:23.207Z,95435.00
2024-01-10T02:27:23.367Z,95433.00
2024-01-10T02:28:23.483Z,95434.00
2024-01-10T02:29:23.687Z,95433.00
2024-01-10T02:30:23.768Z,95436.00
2024-01-10T02:31:23.902Z,95436.00
2024-01-10T02:32:24.172Z,95435.00
2024-01-10T02:33:24.181Z,95435.00
2024-01-10T02:34:24.344Z,95434.00
2024-01-10T02:35:24.487Z,95432.00
2024-01-10T02:36:24.597Z,95429.00
2024-01-10T02:37:24.780Z,95430.00
2024-01-10T02:38:25.139Z,95433.00
2024-01-10T02:39:25.108Z,95430.00
2024-01-10T02:40:25.269Z,95430.00
2024-01-10T02:41:25.506Z,95428.00
2024-01-10T02:42:25.584Z,95427.00
2024-01-10T02:43:25.837Z,95426.00
2024-01-10T02:44:26.035Z,95425.00
2024-01-10T02:45:26.122Z,95427.00
2024-01-10T02:46:26.380Z,95423.00
2024-01-10T02:47:26.632Z,95423.00
2024-01-10T02:48:26.746Z,95420.00
2024-01-10T02:49:26.903Z,95419.00
2024-01-10T02:50:27.092Z,95418.00
2024-01-10T02:51:27.259Z,95415.00
2024-01-10T02:52:27.364Z,95418.00
2024-01-10T02:53:27.573Z,95421.00
2024-01-10T02:54:27.692Z,95421.00
2024-01-10T02:55:27.855Z,95415.00
2024-01-10T02:56:28.046Z,95412.00
2024-01-10T02:57:28.208Z,95411.00
2024-01-10T02:58:28.376Z,95410.00
2024-01-10T02:59:28.577Z,95411.00
2024-01-10T03:00:28.757Z,95414.00
2024-01-10T03:01:28.896Z,95411.00
2024-01-10T03:02:29.263Z,95408.00
2024-01-10T03:03:29.251Z,95408.00
2024-01-10T03:04:29.384Z,95409.00
2024-01-10T03:05:29.629Z,95408.00
2024-01-10T03:06:29.790Z,95409.00
2024-01-10T03:07:29.843Z,95404.00
2024-01-10T03:08:29.980Z,95402.00
2024-01-10T03:09:30.170Z,95400.00
2024-01-10T03:10:31.150Z,95399.00
2024-01-10T03:11:30.121Z,95396.00
2024-01-10T03:12:30.162Z,95398.00
2024-01-10T03:13:30.171Z,95398.00
2024-01-10T03:14:30.184Z,95393.00
2024-01-10T03:15:30.128Z,95388.00
2024-01-10T03:16:30.125Z,95389.00
2024-01-10T03:17:30.286Z,95389.00
2024-01-10T03:18:30.225Z,95389.00
2024-01-10T03:19:30.137Z,95389.00
2024-01-10T03:20:30.210Z,95389.00
2024-01-10T03:21:30.186Z,95386.00
2024-01-10T03:22:30.206Z,95385.00
2024-01-10T03:23:30.276Z,95381.00
2024-01-10T03:24:30.384Z,95382.00
2024-01-10T03:25:30.566Z,95383.00
2024-01-10T03:26:30.770Z,95386.00
2024-01-10T03:27:30.831Z,95384.00
2024-01-10T03:28:30.991Z,95381.00
2024-01-10T03:29:31.141Z,95377.00
2024-01-10T03:30:31.379Z,95375.00
2024-01-10T03:31:31.627Z,95379.00
2024-01-10T03:32:31.600Z,95378.00
2024-01-10T03:33:31.813Z,95374.00
2024-01-10T03:34:31.948Z,95374.00
2024-01-10T03:35:32.169Z,95372.00
2024-01-10T03:36:32.210Z,95371.00
2024-01-10T03:37:32.378Z,95375.00
2024-01-10T03:38:32.538Z,95374.00
2024-01-10T03:39:32.663Z,95372.00
2024-01-10T03:40:32.813Z,95373.00
2024-01-10T03:41:33.088Z,95372.00
2024-01-10T03:42:33.134Z,95371.00
2024-01-10T03:43:33.242Z,95372.00
2024-01-10T03:44:33.357Z,95372.00
2024-01-10T03:45:33.461Z,95370.00
2024-01-10T03:46:33.728Z,95370.00
2024-01-10T03:47:33.900Z,95373.00
2024-01-10T03:48:33.900Z,95374.00
2024-01-10T03:49:34.035Z,95377.00
2024-01-10T03:50:34.212Z,95377.00
2024-01-10T03:51:34.318Z,95378.00
2024-01-10T03:52:34.493Z,95379.00
2024-01-10T03:53:34.662Z,95379.00
2024-01-10T03:54:34.801Z,95382.00
2024-01-10T03:55:35.041Z,95385.00
2024-01-10T03:56:35.558Z,95387.00
2024-01-10T03:57:35.229Z,95387.00
2024-01-10T03:58:35.321Z,95388.00
2024-01-10T03:59:35.401Z,95395.00
2024-01-10T04:00:35.478Z,95395.00
2024-01-10T04:01:35.689Z,95395.00
2024-01-10T04:02:35.660Z,95395.00
2024-01-10T04:03:35.722Z,95395.00
2024-01-10T04:04:35.741Z,95390.00
2024-01-10T04:05:35.911Z,95390.00
2024-01-10T04:06:35.870Z,95395.00
2024-01-10T04:07:36.003Z,95396.00
2024-01-10T04:08:36.150Z,95397.00
2024-01-10T04:09:36.337Z,95399.00
2024-01-10T04:10:36.491Z,95399.00
2024-01-10T04:11:36.607Z,95399.00
2024-01-10T04:12:36.711Z,95399.00
2024-01-10T04:13:36.885Z,95399.00
2024-01-10T04:14:36.970Z,95404.00
2024-01-10T04:15:37.141Z,95406.00
2024-01-10T04:16:37.375Z,95403.00
2024-01-10T04:17:37.558Z,95403.00
2024-01-10T04:18:37.745Z,95403.00
2024-01-10T04:19:37.771Z,95402.00
2024-01-10T04:20:37.982Z,95406.00
2024-01-10T04:21:38.043Z,95410.00
2024-01-10T04:22:38.310Z,95409.00
2024-01-10T04:23:38.363Z,95411.00
2024-01-10T04:24:38.480Z,95412.00
2024-01-10T04:25:38.702Z,95414.00
2024-01-10T04:26:38.757Z,95412.00
2024-01-10T04:27:38.904Z,95409.00
2024-01-10T04:28:39.038Z,95409.00
2024-01-10T04:29:46.969Z,95414.00
2024-01-10T04:30:47.384Z,95415.00
2024-01-10T04:31:55.373Z,95414.00
2024-01-10T04:32:55.555Z,95415.00
2024-01-10T04:33:55.894Z,95414.00
2024-01-10T04:34:56.062Z,95417.00
2024-01-10T04:35:56.228Z,95417.00
2024-01-10T04:36:56.442Z,95416.00
2024-01-10T04:37:56.731Z,95415.00
2024-01-10T04:38:56.879Z,95417.00
2024-01-10T04:39:57.125Z,95421.00
2024-01-10T04:40:57.374Z,95424.00
2024-01-10T04:41:57.537Z,95424.00
2024-01-10T04:42:57.768Z,95424.00
2024-01-10T04:43:57.835Z,95425.00
2024-01-10T04:44:58.144Z,95424.00
2024-01-10T04:45:58.347Z,95421.00
2024-01-10T04:46:58.603Z,95422.00
2024-01-10T04:47:58.892Z,95424.00
2024-01-10T04:48:58.915Z,95426.00
2024-01-10T04:49:59.108Z,95427.00
2024-01-10T04:50:59.357Z,95424.00
2024-01-10T04:51:59.506Z,95423.00
2024-01-10T04:52:59.897Z,95425.00
2024-01-10T04:54:00.094Z,95428.00
2024-01-10T04:55:00.298Z,95429.00
2024-01-10T04:56:00.466Z,95429.00
2024-01-10T04:57:00.668Z,95429.00
2024-01-10T04:58:00.882Z,95430.00
2024-01-10T04:59:01.142Z,95429.00
2024-01-10T05:00:01.373Z,95428.00
2024-01-10T05:01:01.485Z,95441.00
2024-01-10T05:02:01.716Z,95439.00
2024-01-10T05:03:01.879Z,95437.00
2024-01-10T05:04:02.113Z,95440.00
2024-01-10T05:05:02.609Z,95445.00
2024-01-10T05:06:02.314Z,95446.00
2024-01-10T05:07:02.281Z,95446.00
2024-01-10T05:08:02.942Z,95443.00
2024-01-10T05:09:02.307Z,95442.00
2024-01-10T05:10:02.320Z,95447.00
2024-01-10T05:11:02.330Z,95450.00
2024-01-10T05:12:02.315Z,95448.00
2024-01-10T05:13:02.332Z,95448.00
2024-01-10T05:14:02.350Z,95451.00
2024-01-10T05:15:02.338Z,95451.00
2024-01-10T05:16:02.336Z,95449.00
2024-01-10T05:17:02.392Z,95447.00
2024-01-10T05:18:02.332Z,95449.00
2024-01-10T05:19:02.390Z,95448.00
2024-01-10T05:20:02.417Z,95449.00
2024-01-10T05:21:02.314Z,95448.00
2024-01-10T05:22:04.510Z,95454.00
2024-01-10T05:23:02.521Z,95452.00
2024-01-10T05:24:02.513Z,95454.00
2024-01-10T05:25:02.637Z,95457.00
2024-01-10T05:26:02.762Z,95455.00
2024-01-10T05:27:03.129Z,95455.00
2024-01-10T05:28:03.227Z,95457.00
2024-01-10T05:29:03.428Z,95460.00
2024-01-10T05:30:03.594Z,95463.00
2024-01-10T05:31:03.963Z,95452.00
2024-01-10T05:32:04.183Z,95455.00
2024-01-10T05:33:04.333Z,95455.00
2024-01-10T05:34:04.347Z,95456.00
2024-01-10T05:35:04.578Z,95456.00
2024-01-10T05:36:04.738Z,95455.00
2024-01-10T05:37:05.098Z,95454.00
2024-01-10T05:38:05.188Z,95461.00
2024-01-10T05:39:05.358Z,95459.00
2024-01-10T05:40:05.511Z,95460.00
2024-01-10T05:41:05.750Z,95462.00
2024-01-10T05:42:05.900Z,95464.00
2024-01-10T05:43:06.084Z,95464.00
2024-01-10T05:44:06.380Z,95461.00
2024-01-10T05:45:06.456Z,95463.00
2024-01-10T05:46:06.763Z,95461.00
2024-01-10T05:47:06.974Z,95464.00
2024-01-10T05:48:07.162Z,95464.00
2024-01-10T05:49:07.434Z,95469.00
2024-01-10T05:50:07.533Z,95469.00
2024-01-10T05:51:07.328Z,95466.00
2024-01-10T05:52:07.341Z,95467.00
2024-01-10T05:53:07.440Z,95464.00
2024-01-10T05:54:07.468Z,95464.00
2024-01-10T05:55:07.462Z,95465.00
2024-01-10T05:56:07.546Z,95462.00
2024-01-10T05:57:07.624Z,95466.00
2024-01-10T05:58:07.793Z,95466.00
2024-01-10T05:59:07.777Z,95464.00
2024-01-10T06:00:07.716Z,95466.00
2024-01-10T06:01:07.767Z,95463.00
2024-01-10T06:02:07.800Z,95464.00
2024-01-10T06:03:07.977Z,95462.00
2024-01-10T06:04:07.878Z,95463.00
2024-01-10T06:05:08.098Z,95463.00
2024-01-10T06:06:08.039Z,95463.00
2024-01-10T06:07:07.957Z,95464.00
2024-01-10T06:08:08.136Z,95466.00
2024-01-10T06:09:08.074Z,95467.00
2024-01-10T06:10:08.139Z,95468.00
2024-01-10T06:11:08.179Z,95468.00
2024-01-10T06:12:08.261Z,95466.00
2024-01-10T06:13:08.260Z,95466.00
2024-01-10T06:14:08.326Z,95464.00
2024-01-10T06:15:08.302Z,95464.00
2024-01-10T06:16:08.362Z,95461.00
2024-01-10T06:17:08.421Z,95460.00
2024-01-10T06:18:08.502Z,95466.00
2024-01-10T06:19:08.559Z,95465.00
2024-01-10T06:20:08.640Z,95467.00
2024-01-10T06:21:08.509Z,95467.00
2024-01-10T06:22:08.565Z,95467.00
2024-01-10T06:23:08.688Z,95468.00
2024-01-10T06:24:08.645Z,95466.00
2024-01-10T06:25:08.678Z,95469.00
2024-01-10T06:26:08.917Z,95474.00
2024-01-10T06:27:08.755Z,95474.00
2024-01-10T06:28:08.792Z,95474.00
2024-01-10T06:29:08.929Z,95476.00
2024-01-10T06:30:08.942Z,95473.00
2024-01-10T06:31:12.078Z,95478.00
2024-01-10T06:32:09.024Z,95479.00
2024-01-10T06:33:08.949Z,95478.00
2024-01-10T06:34:08.957Z,95483.00
2024-01-10T06:35:08.943Z,95485.00
2024-01-10T06:36:08.948Z,95485.00
2024-01-10T06:37:08.865Z,95484.00
2024-01-10T06:38:08.999Z,95482.00
2024-01-10T06:39:09.012Z,95482.00
2024-01-10T06:40:08.955Z,95483.00
2024-01-10T06:41:08.976Z,95480.00
2024-01-10T06:42:08.902Z,95486.00
2024-01-10T06:43:08.906Z,95485.00
2024-01-10T06:44:09.006Z,95485.00
2024-01-10T06:45:09.033Z,95484.00
2024-01-10T06:46:08.925Z,95485.00
2024-01-10T06:47:08.952Z,95484.00
2024-01-10T06:48:08.979Z,95491.00
2024-01-10T06:49:08.977Z,95489.00
2024-01-10T06:50:08.992Z,95490.00
2024-01-10T06:51:08.973Z,95490.00
2024-01-10T06:52:09.032Z,95493.00
2024-01-10T06:53:09.058Z,95494.00
2024-01-10T06:54:09.001Z,95492.00
2024-01-10T06:55:09.062Z,95496.00
2024-01-10T06:56:09.166Z,95498.00
2024-01-10T06:57:09.880Z,95497.00
2024-01-10T06:58:09.341Z,95496.00
2024-01-10T06:59:09.288Z,95507.00
2024-01-10T07:00:09.281Z,95503.00
2024-01-10T07:01:09.301Z,95507.00
2024-01-10T07:02:09.465Z,95507.00
2024-01-10T07:03:09.321Z,95511.00
2024-01-10T07:04:09.332Z,95510.00
2024-01-10T07:05:09.922Z,95508.00
2024-01-10T07:06:09.994Z,95507.00
2024-01-10T07:07:09.699Z,95507.00
2024-01-10T07:08:09.711Z,95506.00
2024-01-10T07:09:09.640Z,95507.00
2024-01-10T07:10:09.712Z,95507.00
2024-01-10T07:11:09.921Z,95510.00
2024-01-10T07:12:09.824Z,95509.00
2024-01-10T07:13:10.838Z,95508.00
2024-01-10T07:14:10.119Z,95510.00
2024-01-10T07:15:10.094Z,95511.00
2024-01-10T07:16:10.347Z,95513.00
2024-01-10T07:17:10.189Z,95514.00
2024-01-10T07:18:10.784Z,95519.00
2024-01-10T07:19:10.296Z,95521.00
2024-01-10T07:20:10.848Z,95518.00
2024-01-10T07:21:10.513Z,95518.00
2024-01-10T07:22:15.420Z,95520.00
2024-01-10T07:23:10.374Z,95522.00
2024-01-10T07:24:10.332Z,95523.00
2024-01-10T07:25:10.341Z,95528.00
2024-01-10T07:26:10.465Z,95531.00
2024-01-10T07:27:10.537Z,95525.00
2024-01-10T07:28:10.347Z,95524.00
2024-01-10T07:29:10.795Z,95524.00
2024-01-10T07:30:10.427Z,95524.00
2024-01-10T07:31:10.501Z,95527.00
2024-01-10T07:32:13.979Z,95528.00
2024-01-10T07:33:10.941Z,95529.00
2024-01-10T07:34:10.730Z,95526.00
2024-01-10T07:35:10.573Z,95529.00
2024-01-10T07:36:10.468Z,95528.00
2024-01-10T07:37:11.685Z,95525.00
2024-01-10T07:38:10.570Z,95523.00
2024-01-10T07:39:10.590Z,95524.00
2024-01-10T07:40:10.595Z,95525.00
2024-01-10T07:41:10.541Z,95525.00
2024-01-10T07:42:10.632Z,95526.00
2024-01-10T07:43:13.814Z,95523.00
2024-01-10T07:44:11.497Z,95528.00
2024-01-10T07:45:10.639Z,95526.00
2024-01-10T07:46:10.566Z,95526.00
2024-01-10T07:47:11.336Z,95529.00
2024-01-10T07:48:10.964Z,95532.00
2024-01-10T07:49:10.854Z,95536.00
2024-01-10T07:50:10.608Z,95537.00
2024-01-10T07:51:10.567Z,95538.00
2024-01-10T07:52:10.578Z,95548.00
2024-01-10T07:53:10.849Z,95546.00
2024-01-10T07:54:10.538Z,95548.00
2024-01-10T07:55:10.940Z,95547.00
2024-01-10T07:56:10.575Z,95552.00
2024-01-10T07:57:10.964Z,95553.00
2024-01-10T07:58:10.825Z,95548.00
2024-01-10T07:59:10.646Z,95551.00
2024-01-10T08:00:10.563Z,95549.00
2024-01-10T08:01:10.603Z,95552.00
2024-01-10T08:02:10.729Z,95554.00
2024-01-10T08:03:11.424Z,95555.00
2024-01-10T08:04:12.850Z,95558.00
2024-01-10T08:05:10.713Z,95557.00
2024-01-10T08:06:17.837Z,95562.00
2024-01-10T08:07:11.597Z,95564.00
2024-01-10T08:08:10.942Z,95561.00
2024-01-10T08:09:11.662Z,95567.00
2024-01-10T08:10:10.538Z,95563.00
2024-01-10T08:11:10.729Z,95565.00
2024-01-10T08:12:10.630Z,95559.00
2024-01-10T08:13:10.932Z,95564.00
2024-01-10T08:14:10.599Z,95563.00
2024-01-10T08:15:11.965Z,95564.00
2024-01-10T08:16:11.312Z,95563.00
2024-01-10T08:17:10.748Z,95563.00
2024-01-10T08:18:10.640Z,95564.00
2024-01-10T08:19:11.499Z,95568.00
2024-01-10T08:20:11.019Z,95566.00
2024-01-10T08:21:10.608Z,95567.00
2024-01-10T08:22:10.671Z,95567.00
2024-01-10T08:23:10.705Z,95569.00
2024-01-10T08:24:10.686Z,95571.00
2024-01-10T08:25:11.339Z,95572.00
2024-01-10T08:26:10.806Z,95572.00
2024-01-10T08:27:10.562Z,95574.00
2024-01-10T08:28:10.589Z,95576.00
2024-01-10T08:29:10.630Z,95578.00
2024-01-10T08:30:11.022Z,95579.00
2024-01-10T08:31:10.661Z,95577.00
2024-01-10T08:32:10.689Z,95572.00
2024-01-10T08:33:10.878Z,95569.00
2024-01-10T08:34:10.619Z,95571.00
2024-01-10T08:35:11.633Z,95569.00
2024-01-10T08:36:11.437Z,95569.00
2024-01-10T08:37:10.890Z,95569.00
2024-01-10T08:38:10.959Z,95570.00
2024-01-10T08:39:10.779Z,95570.00
2024-01-10T08:40:10.815Z,95572.00
2024-01-10T08:41:10.805Z,95575.00
2024-01-10T08:42:10.809Z,95577.00
2024-01-10T08:43:11.644Z,95579.00
2024-01-10T08:44:10.996Z,95578.00
2024-01-10T08:45:13.335Z,95582.00
2024-01-10T08:46:12.011Z,95578.00
2024-01-10T08:47:12.259Z,95580.00
2024-01-10T08:48:12.036Z,95577.00
2024-01-10T08:49:11.247Z,95580.00
2024-01-10T08:50:11.417Z,95579.00
2024-01-10T08:51:14.284Z,95581.00
2024-01-10T08:52:11.332Z,95584.00
2024-01-10T08:53:11.589Z,95582.00
2024-01-10T08:54:11.333Z,95584.00
2024-01-10T08:55:13.708Z,95585.00
2024-01-10T08:56:13.033Z,95592.00
2024-01-10T08:57:11.456Z,95591.00
2024-01-10T08:58:11.340Z,95591.00
2024-01-10T08:59:11.367Z,95592.00
2024-01-10T09:00:13.979Z,95590.00
2024-01-10T09:01:12.060Z,95591.00
2024-01-10T09:02:11.303Z,95592.00
2024-01-10T09:03:11.574Z,95589.00
2024-01-10T09:04:11.297Z,95589.00
2024-01-10T09:05:14.840Z,95587.00
2024-01-10T09:06:12.701Z,95587.00
2024-01-10T09:07:11.799Z,95588.00
2024-01-10T09:08:11.329Z,95590.00
2024-01-10T09:09:11.314Z,95588.00
2024-01-10T09:10:11.315Z,95588.00
2024-01-10T09:11:11.552Z,95588.00
2024-01-10T09:12:11.816Z,95590.00
2024-01-10T09:13:11.549Z,95588.00
2024-01-10T09:14:11.398Z,95592.00
2024-01-10T09:15:16.561Z,95589.00
2024-01-10T09:16:13.842Z,95589.00
2024-01-10T09:17:11.635Z,95597.00
2024-01-10T09:18:33.231Z,95594.00
2024-01-10T09:19:12.061Z,95593.00
2024-01-10T09:20:11.322Z,95591.00
2024-01-10T09:21:11.347Z,95596.00
2024-01-10T09:22:11.322Z,95595.00
2024-01-10T09:23:12.029Z,95600.00
2024-01-10T09:24:18.743Z,95595.00
2024-01-10T09:25:13.062Z,95592.00
2024-01-10T09:26:11.329Z,95592.00
2024-01-10T09:27:11.347Z,95593.00
2024-01-10T09:28:11.329Z,95593.00
2024-01-10T09:29:11.284Z,95595.00
2024-01-10T09:30:11.346Z,95595.00
2024-01-10T09:31:11.342Z,95594.00
2024-01-10T09:32:11.374Z,95593.00
2024-01-10T09:33:11.402Z,95596.00
2024-01-10T09:34:11.514Z,95597.00
2024-01-10T09:35:11.392Z,95597.00
2024-01-10T09:36:11.910Z,95598.00
2024-01-10T09:37:11.308Z,95597.00
2024-01-10T09:38:11.388Z,95598.00
2024-01-10T09:39:11.323Z,95600.00
2024-01-10T09:40:11.269Z,95599.00
2024-01-10T09:41:12.980Z,95599.00
2024-01-10T09:42:12.803Z,95598.00
2024-01-10T09:43:14.398Z,95597.00
2024-01-10T09:44:11.447Z,95595.00
2024-01-10T09:45:11.325Z,95601.00
2024-01-10T09:46:11.355Z,95598.00
2024-01-10T09:47:11.323Z,95598.00
2024-01-10T09:48:11.428Z,95597.00
2024-01-10T09:49:11.494Z,95594.00
2024-01-10T09:50:11.388Z,95593.00
2024-01-10T09:51:11.462Z,95593.00
2024-01-10T09:52:13.891Z,95593.00
2024-01-10T09:53:11.670Z,95596.00
2024-01-10T09:54:11.312Z,95593.00
2024-01-10T09:55:12.219Z,95591.00
2024-01-10T09:56:11.414Z,95590.00
2024-01-10T09:57:11.452Z,95588.00
2024-01-10T09:58:11.363Z,95588.00
2024-01-10T09:59:11.344Z,95585.00
2024-01-10T10:00:11.362Z,95582.00
2024-01-10T10:01:16.557Z,95583.00
2024-01-10T10:02:11.618Z,95581.00
2024-01-10T10:03:11.350Z,95583.00
2024-01-10T10:04:11.399Z,95581.00
2024-01-10T10:05:11.664Z,95578.00
2024-01-10T10:06:14.363Z,95578.00
2024-01-10T10:07:11.525Z,95579.00
2024-01-10T10:08:12.618Z,95582.00
2024-01-10T10:09:11.484Z,95578.00
2024-01-10T10:10:11.401Z,95576.00
2024-01-10T10:11:11.509Z,95574.00
2024-01-10T10:12:11.367Z,95572.00
2024-01-10T10:13:13.548Z,95573.00
2024-01-10T10:14:11.908Z,95573.00
2024-01-10T10:15:11.592Z,95570.00
2024-01-10T10:16:11.590Z,95581.00
2024-01-10T10:17:11.426Z,95570.00
2024-01-10T10:18:11.444Z,95572.00
2024-01-10T10:19:11.484Z,95570.00
2024-01-10T10:20:18.028Z,95570.00
2024-01-10T10:21:12.199Z,95568.00
2024-01-10T10:22:11.436Z,95568.00
2024-01-10T10:23:11.671Z,95568.00
2024-01-10T10:24:11.364Z,95568.00
2024-01-10T10:25:11.375Z,95569.00
2024-01-10T10:26:12.685Z,95568.00
2024-01-10T10:27:13.508Z,95570.00
2024-01-10T10:28:20.993Z,95569.00
2024-01-10T10:29:12.484Z,95567.00
2024-01-10T10:30:11.459Z,95569.00
2024-01-10T10:31:11.473Z,95566.00
2024-01-10T10:32:12.052Z,95568.00
2024-01-10T10:33:11.517Z,95568.00
2024-01-10T10:34:11.612Z,95568.00
2024-01-10T10:35:24.668Z,95566.00
2024-01-10T10:36:12.694Z,95563.00
2024-01-10T10:37:14.515Z,95569.00
2024-01-10T10:38:11.923Z,95568.00
2024-01-10T10:39:11.417Z,95572.00
2024-01-10T10:40:12.019Z,95572.00
2024-01-10T10:41:13.396Z,95568.00
2024-01-10T10:42:11.490Z,95567.00
2024-01-10T10:43:13.461Z,95567.00
2024-01-10T10:44:11.551Z,95574.00
2024-01-10T10:45:12.646Z,95573.00
2024-01-10T10:46:11.471Z,95567.00
2024-01-10T10:47:13.110Z,95566.00
2024-01-10T10:48:11.495Z,95566.00
2024-01-10T10:49:11.593Z,95566.00
2024-01-10T10:50:11.507Z,95564.00
2024-01-10T10:51:13.485Z,95565.00
2024-01-10T10:52:11.485Z,95565.00
2024-01-10T10:53:13.093Z,95565.00
2024-01-10T10:54:12.446Z,95566.00
2024-01-10T10:55:11.940Z,95565.00
2024-01-10T10:56:11.778Z,95565.00
2024-01-10T10:57:11.777Z,95565.00
2024-01-10T10:58:12.596Z,95566.00
2024-01-10T10:59:11.801Z,95564.00
2024-01-10T11:00:11.931Z,95563.00
2024-01-10T11:01:11.890Z,95561.00
2024-01-10T11:02:11.945Z,95560.00
2024-01-10T11:03:12.056Z,95559.00
2024-01-10T11:04:11.912Z,95558.00
2024-01-10T11:05:11.926Z,95557.00
2024-01-10T11:06:12.090Z,95556.00
2024-01-10T11:07:11.990Z,95556.00
2024-01-10T11:08:11.913Z,95555.00
2024-01-10T11:09:19.550Z,95555.00
2024-01-10T11:10:12.497Z,95552.00
2024-01-10T11:11:14.495Z,95555.00
2024-01-10T11:12:13.180Z,95555.00
2024-01-10T11:13:12.170Z,95551.00
2024-01-10T11:14:12.470Z,95550.00
2024-01-10T11:15:12.481Z,95548.00
2024-01-10T11:16:12.279Z,95549.00
2024-01-10T11:17:12.207Z,95547.00
2024-01-10T11:18:12.412Z,95546.00
2024-01-10T11:19:12.483Z,95547.00
2024-01-10T11:20:12.540Z,95548.00
2024-01-10T11:21:12.935Z,95549.00
2024-01-10T11:22:13.186Z,95547.00
2024-01-10T11:23:12.924Z,95547.00
2024-01-10T11:24:17.345Z,95548.00
2024-01-10T11:25:13.250Z,95546.00
2024-01-10T11:26:12.546Z,95547.00
2024-01-10T11:27:13.141Z,95543.00
2024-01-10T11:28:12.975Z,95541.00
2024-01-10T11:29:12.411Z,95544.00
2024-01-10T11:30:12.396Z,95543.00
2024-01-10T11:31:12.479Z,95552.00
2024-01-10T11:32:12.479Z,95550.00
2024-01-10T11:33:12.552Z,95548.00
2024-01-10T11:34:12.727Z,95540.00
2024-01-10T11:35:13.321Z,95539.00
2024-01-10T11:36:12.793Z,95543.00
2024-01-10T11:37:12.940Z,95544.00
2024-01-10T11:38:12.715Z,95540.00
2024-01-10T11:39:13.461Z,95540.00
2024-01-10T11:40:12.543Z,95538.00
2024-01-10T11:41:13.529Z,95538.00
2024-01-10T11:42:13.073Z,95535.00
2024-01-10T11:43:12.614Z,95532.00
2024-01-10T11:44:13.328Z,95532.00
2024-01-10T11:45:16.463Z,95528.00
2024-01-10T11:46:12.838Z,95536.00